This is the latest recevied weather packets stored in our database for station/object XW7RMR. If no packets are shown the sender has not sent any weather packets the latest 10 day(s).
| Time | Temp. | Humidity | Pressure | Rain* | Wind** | Luminosity | Snow |
|---|---|---|---|---|---|---|---|
| 1777265062 | 12.78° C | 60% | 1011.5 hPa | 0 mm | - | 0 W/m² | - |
| 1777264760 | 13.33° C | 60% | 1011.4 hPa | 0 mm | - | 0 W/m² | - |
| 1777260470 | 15.56° C | 53% | 1010 hPa | 0 mm | - | 1 W/m² | - |
| 1777260165 | 15.56° C | 53% | 1010 hPa | 0 mm | - | 1 W/m² | - |
| 1777259862 | 15.56° C | 52% | 1010 hPa | 0 mm | - | 2 W/m² | - |
| 1777259559 | 15.56° C | 52% | 1010 hPa | 0 mm | - | 4 W/m² | - |
| 1777259257 | 16.11° C | 51% | 1009.7 hPa | 0 mm | - | 6 W/m² | - |
| 1777258953 | 16.11° C | 51% | 1009.9 hPa | 0 mm | - | 9 W/m² | - |
| 1777258651 | 16.11° C | 51% | 1009.8 hPa | 0 mm | - | 12 W/m² | - |
| 1777258346 | 16.67° C | 50% | 1009.6 hPa | 0 mm | - | 15 W/m² | - |
| 1777258044 | 16.67° C | 49% | 1009.7 hPa | 0 mm | - | 19 W/m² | - |
| 1777257741 | 17.22° C | 49% | 1009.6 hPa | 0 mm | - | 23 W/m² | - |
| 1777257438 | 17.22° C | 49% | 1009.6 hPa | 0 mm | - | 27 W/m² | - |
| 1777257135 | 17.78° C | 48% | 1009.5 hPa | 0 mm | - | 32 W/m² | - |
| 1777256832 | 17.78° C | 47% | 1009.4 hPa | 0 mm | - | 35 W/m² | - |
| 1777256529 | 17.78° C | 47% | 1009.5 hPa | 0 mm | - | 44 W/m² | - |
| 1777256223 | 18.33° C | 47% | 1009.4 hPa | 0 mm | - | 54 W/m² | - |
| 1777255920 | 18.33° C | 46% | 1009.4 hPa | 0 mm | - | 67 W/m² | - |
| 1777255616 | 18.33° C | 46% | 1009.5 hPa | 0 mm | - | 81 W/m² | - |
| 1777255313 | 18.33° C | 45% | 1009.3 hPa | 0 mm | - | 88 W/m² | - |
| 1777255008 | 18.89° C | 44% | 1009.1 hPa | 0 mm | - | 98 W/m² | - |
| 1777254705 | 18.89° C | 43% | 1009 hPa | 0 mm | - | 112 W/m² | - |
| 1777254402 | 18.89° C | 42% | 1009.3 hPa | 0 mm | - | 136 W/m² | - |
| 1777254098 | 18.89° C | 43% | 1009.1 hPa | 0 mm | - | 160 W/m² | - |
| 1777253795 | 19.44° C | 43% | 1009.1 hPa | 0 mm | - | 165 W/m² | - |
* Rain latest hour (hover to see other rain measurements)
** Current wind speed in m/s (hover to see current wind gust speed)